»·PEaware :: N132KT KGNB-KPOC

N132KT :: KGNB-KPOC

FLIGHT INFORMATION

Flight Status: Arrived
Operator: Privately registered:
United States
More flights under this callsign
Pilot: Keith S. (1)
Aircraft: BEECH AIRCRAFT BARON
(BE58)
More flights by this aircraft type
Origin: KGNB Granby-Grand Co
United States
Destination: KPOC Brackett
United States
More flights between these airports :: More routes between these airports
Route:
File this flight plan on PilotEdge
Remarks:
Altitude:
(Current/Filed)
10,500ft
Speed:
(Current/Filed)
170kts
Departed: 22-Jul-19 05:30 AM
Arrived: 22-Jul-19 09:21 AM
Distance/Time
Traveled:
672nm/3:51
Distance/Time
To Go:
Arrived

Flight Plot

Page will automatically refresh every two minutes.

Flight plan parsing failed; only flown route is shown


Map Options




Map Legend


Flown Route
Filed Route
Departure Airport
Arrival Airport
Navaid (VOR, NDB)
Fix

Horizontal Profiles

Position Reports

Time Latitude Longitude Heading Altitude Ground
Speed
22-Jul-19 05:21 40.087552 -105.910708 10 8207ft 0kts
22-Jul-19 05:22 40.087552 -105.910708 10 8207ft 0kts
22-Jul-19 05:23 40.087552 -105.910708 10 8207ft 0kts
22-Jul-19 05:24 40.087552 -105.910708 10 8207ft 0kts
22-Jul-19 05:25 40.087552 -105.910708 10 8207ft 0kts
22-Jul-19 05:26 40.087552 -105.910708 10 8207ft 0kts
22-Jul-19 05:27 40.088168 -105.909678 33 8207ft 7kts
22-Jul-19 05:28 40.088090 -105.908177 22 8207ft 0kts
22-Jul-19 05:28 40.088248 -105.908099 18 8207ft 12kts
22-Jul-19 05:30 40.094329 -105.946695 265 8809ft 128kts
22-Jul-19 05:31 40.078228 -105.991316 249 9783ft 143kts
22-Jul-19 05:31 40.068818 -106.034351 255 10544ft 150kts
22-Jul-19 05:33 40.056953 -106.104520 257 10487ft 177kts
22-Jul-19 05:33 40.048440 -106.157608 257 10485ft 180kts
22-Jul-19 05:35 40.036357 -106.233132 257 10485ft 182kts
22-Jul-19 05:36 40.025936 -106.298049 257 10485ft 182kts
22-Jul-19 05:36 40.017192 -106.352341 257 10473ft 183kts
22-Jul-19 05:37 40.006659 -106.417511 257 10474ft 182kts
22-Jul-19 05:38 39.989033 -106.479356 244 10456ft 182kts
22-Jul-19 05:39 39.967331 -106.539364 243 10426ft 183kts
22-Jul-19 05:40 39.945419 -106.599413 243 10411ft 182kts
22-Jul-19 05:41 39.923539 -106.659225 243 10411ft 182kts
22-Jul-19 05:42 39.901646 -106.718974 243 10411ft 182kts
22-Jul-19 05:43 39.879710 -106.778733 243 10411ft 182kts
22-Jul-19 05:44 39.857809 -106.838289 243 10411ft 182kts
22-Jul-19 05:45 39.835911 -106.897706 242 10412ft 181kts
22-Jul-19 05:46 39.808564 -106.952020 224 10412ft 179kts
22-Jul-19 05:47 39.773724 -106.998620 223 10412ft 178kts
22-Jul-19 05:48 39.738802 -107.044666 223 10412ft 178kts
22-Jul-19 05:49 39.704051 -107.090350 223 10412ft 177kts
22-Jul-19 05:50 39.669126 -107.136188 223 10412ft 177kts
22-Jul-19 05:51 39.634329 -107.181789 223 10413ft 177kts
22-Jul-19 05:52 39.599315 -107.227604 223 10412ft 177kts
22-Jul-19 05:53 39.564698 -107.273267 233 10406ft 178kts
22-Jul-19 05:54 39.557709 -107.336995 263 10382ft 178kts
22-Jul-19 05:55 39.552935 -107.401303 262 10343ft 178kts
22-Jul-19 05:56 39.548056 -107.465361 262 10304ft 178kts
22-Jul-19 05:57 39.543105 -107.529764 262 10267ft 179kts
22-Jul-19 05:58 39.538112 -107.594200 262 10265ft 178kts
22-Jul-19 05:59 39.533196 -107.657220 261 10265ft 178kts
22-Jul-19 06:00 39.526272 -107.720804 243 10267ft 176kts
22-Jul-19 06:01 39.503377 -107.777223 239 10265ft 176kts
22-Jul-19 06:02 39.479480 -107.833041 238 10265ft 176kts
22-Jul-19 06:03 39.457486 -107.884070 238 10265ft 176kts
22-Jul-19 06:04 39.433989 -107.938459 238 10281ft 175kts
22-Jul-19 06:05 39.409984 -107.993921 238 10283ft 176kts
22-Jul-19 06:06 39.385847 -108.049594 238 10269ft 177kts
22-Jul-19 06:07 39.361685 -108.105222 238 10250ft 177kts
22-Jul-19 06:08 39.337356 -108.161131 238 10230ft 178kts
22-Jul-19 06:09 39.312805 -108.217447 238 10210ft 179kts
22-Jul-19 06:10 39.288227 -108.273723 238 10201ft 179kts
22-Jul-19 06:11 39.263759 -108.329648 238 10201ft 178kts
22-Jul-19 06:12 39.239218 -108.385640 238 10201ft 178kts
22-Jul-19 06:13 39.214635 -108.441628 238 10201ft 178kts
22-Jul-19 06:14 39.190075 -108.497463 238 10200ft 178kts
22-Jul-19 06:15 39.165489 -108.553258 238 10200ft 178kts
22-Jul-19 06:16 39.140764 -108.609268 238 10200ft 178kts
22-Jul-19 06:17 39.116452 -108.664245 237 10200ft 178kts
22-Jul-19 06:18 39.091826 -108.719831 237 10200ft 178kts
22-Jul-19 06:19 39.067122 -108.775497 237 10200ft 178kts
22-Jul-19 06:20 39.041008 -108.828288 234 10200ft 178kts
22-Jul-19 06:21 39.013588 -108.881309 233 10200ft 178kts
22-Jul-19 06:22 38.985931 -108.934615 233 10200ft 178kts
22-Jul-19 06:23 38.958415 -108.987542 233 10194ft 178kts
22-Jul-19 06:24 38.930648 -109.040864 233 10177ft 179kts
22-Jul-19 06:25 38.902832 -109.094196 233 10161ft 179kts
22-Jul-19 06:26 38.875413 -109.146679 233 10147ft 180kts
22-Jul-19 06:27 38.847226 -109.200533 233 10131ft 181kts
22-Jul-19 06:28 38.819050 -109.254304 233 10128ft 181kts
22-Jul-19 06:29 38.790804 -109.308108 233 10128ft 181kts
22-Jul-19 06:30 38.762680 -109.361586 233 10128ft 181kts
22-Jul-19 06:31 38.734355 -109.415358 233 10129ft 181kts
22-Jul-19 06:32 38.706132 -109.468848 233 10129ft 181kts
22-Jul-19 06:33 38.677861 -109.522342 233 10129ft 181kts
22-Jul-19 06:34 38.649531 -109.575858 233 10129ft 181kts
22-Jul-19 06:35 38.621190 -109.629306 233 10129ft 181kts
22-Jul-19 06:36 38.593960 -109.680577 233 10128ft 181kts
22-Jul-19 06:37 38.565605 -109.733880 233 10128ft 180kts
22-Jul-19 06:38 38.537138 -109.787304 233 10128ft 180kts
22-Jul-19 06:39 38.508710 -109.840569 233 10128ft 180kts
22-Jul-19 06:40 38.480292 -109.893728 233 10128ft 180kts
22-Jul-19 06:41 38.451765 -109.947004 233 10128ft 181kts
22-Jul-19 06:42 38.423243 -110.000183 233 10128ft 181kts
22-Jul-19 06:43 38.394669 -110.053371 233 10128ft 181kts
22-Jul-19 06:44 38.366124 -110.106420 233 10128ft 181kts
22-Jul-19 06:45 38.337496 -110.159535 233 10128ft 181kts
22-Jul-19 06:46 38.308856 -110.212589 233 10128ft 181kts
22-Jul-19 06:47 38.280147 -110.265682 233 10128ft 181kts
22-Jul-19 06:48 38.251466 -110.318639 233 10128ft 181kts
22-Jul-19 06:49 38.222701 -110.371664 233 10128ft 181kts
22-Jul-19 06:50 38.193828 -110.424803 233 10128ft 181kts
22-Jul-19 06:51 38.165054 -110.477673 233 10128ft 181kts
22-Jul-19 06:52 38.136151 -110.530696 233 10128ft 181kts
22-Jul-19 06:53 38.107175 -110.583764 233 10128ft 181kts
22-Jul-19 06:54 38.078313 -110.636541 233 10128ft 181kts
22-Jul-19 06:55 38.050503 -110.687310 232 10159ft 179kts
22-Jul-19 06:56 38.021892 -110.739460 232 10180ft 179kts
22-Jul-19 06:57 37.993280 -110.791529 232 10181ft 178kts
22-Jul-19 06:58 37.964692 -110.843474 232 10164ft 178kts
22-Jul-19 06:59 37.936188 -110.895193 232 10145ft 177kts
22-Jul-19 07:00 37.907804 -110.946589 232 10195ft 178kts
22-Jul-19 07:01 37.879919 -110.996985 233 10228ft 181kts
22-Jul-19 07:02 37.850564 -111.049967 234 10240ft 185kts
22-Jul-19 07:03 37.820653 -111.103841 236 10233ft 185kts
22-Jul-19 07:04 37.791061 -111.157298 235 10182ft 184kts
22-Jul-19 07:05 37.761607 -111.210155 235 10234ft 181kts
22-Jul-19 07:06 37.732409 -111.262537 235 10269ft 181kts
22-Jul-19 07:07 37.703112 -111.315019 235 10280ft 182kts
22-Jul-19 07:08 37.673631 -111.367747 235 10271ft 183kts
22-Jul-19 07:09 37.644062 -111.420545 235 10263ft 183kts
22-Jul-19 07:10 37.614551 -111.473153 235 10276ft 182kts
22-Jul-19 07:11 37.585604 -111.524677 235 10303ft 182kts
22-Jul-19 07:12 37.556207 -111.576924 235 10314ft 182kts
22-Jul-19 07:13 37.526651 -111.629372 235 10302ft 183kts
22-Jul-19 07:14 37.498747 -111.678808 234 10293ft 183kts
22-Jul-19 07:15 37.469108 -111.731234 234 10304ft 182kts
22-Jul-19 07:16 37.439534 -111.783466 234 10336ft 181kts
22-Jul-19 07:17 37.410099 -111.835370 234 10389ft 180kts
22-Jul-19 07:18 37.380677 -111.887180 234 10402ft 182kts
22-Jul-19 07:19 37.351067 -111.939234 234 10402ft 182kts
22-Jul-19 07:20 37.321444 -111.991229 234 10402ft 182kts
22-Jul-19 07:21 37.291767 -112.043244 234 10402ft 182kts
22-Jul-19 07:22 37.262057 -112.095253 234 10385ft 183kts
22-Jul-19 07:23 37.232027 -112.147718 234 10336ft 184kts
22-Jul-19 07:24 37.202061 -112.199987 234 10298ft 184kts
22-Jul-19 07:25 37.171964 -112.252403 234 10272ft 184kts
22-Jul-19 07:26 37.141943 -112.304603 234 10258ft 183kts
22-Jul-19 07:27 37.112021 -112.356555 234 10256ft 183kts
22-Jul-19 07:28 37.082088 -112.408452 234 10256ft 183kts
22-Jul-19 07:30 37.051917 -112.460675 234 10256ft 183kts
22-Jul-19 07:31 37.021836 -112.512658 233 10256ft 183kts
22-Jul-19 07:32 36.993255 -112.565845 236 10256ft 183kts
22-Jul-19 07:33 36.965659 -112.619368 236 10252ft 181kts
22-Jul-19 07:34 36.938672 -112.671626 235 10247ft 180kts
22-Jul-19 07:35 36.911297 -112.724557 235 10243ft 180kts
22-Jul-19 07:36 36.884546 -112.776203 235 10240ft 180kts
22-Jul-19 07:37 36.857203 -112.828913 235 10238ft 180kts
22-Jul-19 07:38 36.829803 -112.881645 235 10238ft 180kts
22-Jul-19 07:39 36.802334 -112.934428 235 10238ft 181kts
22-Jul-19 07:40 36.774763 -112.987322 235 10238ft 181kts
22-Jul-19 07:41 36.747071 -113.040361 235 10238ft 182kts
22-Jul-19 07:42 36.719192 -113.093657 235 10238ft 182kts
22-Jul-19 07:43 36.691280 -113.146951 235 10238ft 182kts
22-Jul-19 07:44 36.663395 -113.200114 235 10238ft 182kts
22-Jul-19 07:45 36.635544 -113.253127 235 10238ft 182kts
22-Jul-19 07:46 36.607586 -113.306263 235 10226ft 183kts
22-Jul-19 07:47 36.579457 -113.359640 235 10191ft 183kts
22-Jul-19 07:48 36.551358 -113.412875 235 10157ft 183kts
22-Jul-19 07:49 36.523297 -113.465955 235 10122ft 183kts
22-Jul-19 07:50 36.495281 -113.518867 235 10088ft 183kts
22-Jul-19 07:51 36.467294 -113.571641 235 10082ft 181kts
22-Jul-19 07:51 36.444098 -113.615318 235 10082ft 181kts
22-Jul-19 07:53 36.412384 -113.674946 234 10082ft 181kts
22-Jul-19 07:53 36.389107 -113.718642 234 10082ft 181kts
22-Jul-19 07:54 36.361200 -113.770959 234 10082ft 181kts
22-Jul-19 07:56 36.328685 -113.831811 234 10082ft 181kts
22-Jul-19 07:56 36.305343 -113.875431 234 10079ft 181kts
22-Jul-19 07:57 36.277343 -113.927678 234 10068ft 182kts
22-Jul-19 07:58 36.249114 -113.980273 234 10051ft 183kts
22-Jul-19 07:59 36.219545 -114.031627 234 10029ft 183kts
22-Jul-19 08:00 36.190264 -114.083932 233 10012ft 184kts
22-Jul-19 08:01 36.160576 -114.136418 233 10001ft 184kts
22-Jul-19 08:02 36.131001 -114.188577 233 10004ft 184kts
22-Jul-19 08:03 36.101412 -114.240673 233 10001ft 184kts
22-Jul-19 08:04 36.071689 -114.292920 233 10013ft 183kts
22-Jul-19 08:05 36.033471 -114.332106 212 10017ft 178kts
22-Jul-19 08:06 35.991637 -114.365276 212 10017ft 178kts
22-Jul-19 08:07 35.949830 -114.398412 212 10017ft 178kts
22-Jul-19 08:08 35.907958 -114.431588 212 10017ft 178kts
22-Jul-19 08:09 35.867348 -114.463752 212 10018ft 178kts
22-Jul-19 08:10 35.825412 -114.496954 212 10018ft 178kts
22-Jul-19 08:11 35.783669 -114.529989 212 10018ft 178kts
22-Jul-19 08:12 35.744226 -114.566739 231 10020ft 179kts
22-Jul-19 08:13 35.714163 -114.615801 232 10018ft 179kts
22-Jul-19 08:14 35.687618 -114.664446 238 10018ft 180kts
22-Jul-19 08:15 35.662068 -114.717531 237 10010ft 180kts
22-Jul-19 08:16 35.636396 -114.770635 237 9999ft 180kts
22-Jul-19 08:17 35.610640 -114.823813 237 9996ft 180kts
22-Jul-19 08:18 35.584985 -114.876698 237 9998ft 180kts
22-Jul-19 08:19 35.559308 -114.929545 237 10007ft 179kts
22-Jul-19 08:20 35.534147 -114.981257 237 10019ft 179kts
22-Jul-19 08:21 35.508413 -115.034068 237 10020ft 179kts
22-Jul-19 08:22 35.482743 -115.086661 237 10017ft 179kts
22-Jul-19 08:23 35.457027 -115.139269 237 10021ft 178kts
22-Jul-19 08:24 35.431533 -115.191342 237 10032ft 177kts
22-Jul-19 08:25 35.405904 -115.243611 237 10036ft 177kts
22-Jul-19 08:26 35.380457 -115.295432 237 10036ft 177kts
22-Jul-19 08:27 35.354781 -115.347642 237 10035ft 177kts
22-Jul-19 08:28 35.329216 -115.399548 237 10032ft 177kts
22-Jul-19 08:29 35.303634 -115.451410 237 10035ft 177kts
22-Jul-19 08:30 35.278025 -115.503250 237 10036ft 177kts
22-Jul-19 08:31 35.252393 -115.555059 237 10035ft 177kts
22-Jul-19 08:32 35.226710 -115.606892 237 10035ft 177kts
22-Jul-19 08:33 35.201548 -115.657600 236 10036ft 177kts
22-Jul-19 08:34 35.176849 -115.707285 237 10041ft 177kts
22-Jul-19 08:35 35.151236 -115.758748 237 10044ft 177kts
22-Jul-19 08:36 35.125527 -115.810337 237 10043ft 177kts
22-Jul-19 08:37 35.099825 -115.861834 237 10038ft 177kts
22-Jul-19 08:38 35.074049 -115.913405 237 10030ft 177kts
22-Jul-19 08:39 35.048227 -115.964991 237 10027ft 177kts
22-Jul-19 08:40 35.022404 -116.016489 237 10032ft 177kts
22-Jul-19 08:41 34.996497 -116.068085 238 10042ft 177kts
22-Jul-19 08:42 34.970550 -116.119688 238 10053ft 178kts
22-Jul-19 08:43 34.944412 -116.171595 238 10063ft 179kts
22-Jul-19 08:44 34.918271 -116.223431 238 10063ft 180kts
22-Jul-19 08:45 34.893068 -116.273336 238 10059ft 181kts
22-Jul-19 08:46 34.866534 -116.325795 238 10052ft 182kts
22-Jul-19 08:47 34.840608 -116.376924 238 10412ft 165kts
22-Jul-19 08:48 34.815218 -116.427029 238 10444ft 178kts
22-Jul-19 08:49 34.788568 -116.478913 237 10445ft 181kts
22-Jul-19 08:50 34.761362 -116.530717 237 10443ft 182kts
22-Jul-19 08:51 34.733886 -116.582922 237 10436ft 182kts
22-Jul-19 08:52 34.706372 -116.635118 237 10427ft 182kts
22-Jul-19 08:53 34.680073 -116.684936 237 10440ft 181kts
22-Jul-19 08:54 34.652695 -116.736736 236 10454ft 181kts
22-Jul-19 08:55 34.625503 -116.788091 236 10462ft 180kts
22-Jul-19 08:56 34.598344 -116.839316 236 10467ft 179kts
22-Jul-19 08:57 34.571352 -116.890156 236 10466ft 178kts
22-Jul-19 08:58 34.544530 -116.940626 236 10462ft 177kts
22-Jul-19 08:59 34.517761 -116.990908 235 10451ft 177kts
22-Jul-19 09:00 34.490848 -117.041386 234 10440ft 177kts
22-Jul-19 09:01 34.463881 -117.091887 234 10429ft 178kts
22-Jul-19 09:02 34.436673 -117.142748 233 10422ft 179kts
22-Jul-19 09:03 34.409450 -117.193566 233 10424ft 179kts
22-Jul-19 09:04 34.382292 -117.244213 233 10442ft 178kts
22-Jul-19 09:05 34.355367 -117.294355 233 10505ft 175kts
22-Jul-19 09:06 34.328408 -117.344502 233 10509ft 177kts
22-Jul-19 09:07 34.301310 -117.394823 233 10503ft 178kts
22-Jul-19 09:08 34.274183 -117.445107 234 10494ft 176kts
22-Jul-19 09:09 34.247538 -117.494465 234 10488ft 174kts
22-Jul-19 09:10 34.220911 -117.543707 234 10486ft 174kts
22-Jul-19 09:11 34.194107 -117.593260 234 9813ft 172kts
22-Jul-19 09:12 34.171790 -117.634299 236 7453ft 132kts
22-Jul-19 09:13 34.151685 -117.671386 237 5047ft 149kts
22-Jul-19 09:14 34.139062 -117.718877 270 2785ft 157kts
22-Jul-19 09:15 34.134793 -117.761809 238 2527ft 152kts
22-Jul-19 09:16 34.152741 -117.765529 17 2783ft 160kts
22-Jul-19 09:17 34.140155 -117.768005 166 2300ft 157kts
22-Jul-19 09:18 34.102700 -117.758992 181 1844ft 127kts
22-Jul-19 09:19 34.092166 -117.782328 267 994ft 60kts
22-Jul-19 09:20 34.093113 -117.786228 349 982ft 0kts
22-Jul-19 09:21 34.093113 -117.786228 349 982ft 0kts
22-Jul-19 09:22 34.093113 -117.786228 349 982ft 0kts
22-Jul-19 09:23 34.093113 -117.786228 349 982ft 0kts

Navigation Log

Ident Type
Flight plan parsing failed, navigation log unavailable